createdAt,value
2023-03-28T00:01:03.539Z,101519.88
2023-03-28T00:03:36.012Z,101510.19
2023-03-28T00:06:06.087Z,101512.91
2023-03-28T00:08:33.212Z,101509.50
2023-03-28T00:11:06.818Z,101518.34
2023-03-28T00:13:34.072Z,101508.75
2023-03-28T00:16:10.318Z,101500.91
2023-03-28T00:18:42.336Z,101494.75
2023-03-28T00:21:30.762Z,101501.88
2023-03-28T00:24:02.192Z,101492.28
2023-03-28T00:26:32.016Z,101486.19
2023-03-28T00:29:01.652Z,101486.28
2023-03-28T00:31:30.019Z,101487.97
2023-03-28T00:33:58.003Z,101492.44
2023-03-28T00:36:29.955Z,101483.69
2023-03-28T00:38:58.134Z,101474.91
2023-03-28T00:41:27.420Z,101476.69
2023-03-28T00:43:56.221Z,101474.09
2023-03-28T00:46:52.704Z,101462.72
2023-03-28T00:49:25.501Z,101464.50
2023-03-28T00:52:01.472Z,101460.94
2023-03-28T00:54:33.499Z,101465.47
2023-03-28T00:57:03.713Z,101463.72
2023-03-28T00:59:34.468Z,101454.06
2023-03-28T01:02:02.078Z,101456.78
2023-03-28T01:04:36.703Z,101448.84
2023-03-28T01:07:05.799Z,101448.06
2023-03-28T01:09:33.304Z,101440.03
2023-03-28T01:12:01.052Z,101441.91
2023-03-28T01:14:29.757Z,101441.91
2023-03-28T01:16:58.021Z,101434.88
2023-03-28T01:19:43.326Z,101435.75
2023-03-28T01:22:10.198Z,101431.31
2023-03-28T01:25:02.916Z,101429.59
2023-03-28T01:27:32.509Z,101419.00
2023-03-28T01:30:17.361Z,101416.38
2023-03-28T01:33:21.386Z,101414.59
2023-03-28T01:35:57.418Z,101404.00
2023-03-28T01:38:33.485Z,101403.13
2023-03-28T01:41:13.067Z,101397.84
2023-03-28T01:43:58.386Z,101395.28
2023-03-28T01:46:37.128Z,101390.84
2023-03-28T01:53:07.986Z,101376.75
2023-03-28T01:55:42.089Z,101374.09
2023-03-28T01:58:43.702Z,101367.03
2023-03-28T02:01:37.151Z,101362.66
2023-03-28T02:04:20.711Z,101365.31
2023-03-28T02:06:51.268Z,101353.81
2023-03-28T02:09:24.188Z,101359.00
2023-03-28T02:11:58.299Z,101356.44
2023-03-28T02:14:28.436Z,101351.16
2023-03-28T02:17:02.399Z,101355.50
2023-03-28T02:19:31.535Z,101342.13
2023-03-28T02:22:07.928Z,101341.28
2023-03-28T02:24:34.907Z,101329.00
2023-03-28T02:27:02.333Z,101325.47
2023-03-28T02:29:31.010Z,101323.69
2023-03-28T02:31:58.041Z,101317.44
2023-03-28T02:34:25.677Z,101316.63
2023-03-28T02:36:57.326Z,101313.03
2023-03-28T02:39:29.661Z,101306.94
2023-03-28T02:42:19.390Z,101305.03
2023-03-28T02:44:52.894Z,101311.16
2023-03-28T02:47:28.435Z,101304.16
2023-03-28T02:50:08.620Z,101290.84
2023-03-28T02:52:42.904Z,101284.69
2023-03-28T02:55:29.290Z,101284.69
2023-03-28T02:58:08.598Z,101283.88
2023-03-28T03:00:36.992Z,101277.72
2023-03-28T03:03:09.246Z,101274.09
2023-03-28T03:05:36.948Z,101280.22
2023-03-28T03:08:04.581Z,101272.19
2023-03-28T03:10:31.741Z,101270.41
2023-03-28T03:12:58.755Z,101259.81
2023-03-28T03:15:26.426Z,101262.31
2023-03-28T03:17:53.356Z,101242.97
2023-03-28T03:20:20.460Z,101253.44
2023-03-28T03:22:47.357Z,101238.34
2023-03-28T03:25:14.708Z,101237.50
2023-03-28T03:27:41.921Z,101229.47
2023-03-28T03:30:10.416Z,101227.78
2023-03-28T03:32:39.109Z,101226.91
2023-03-28T03:35:07.090Z,101225.13
2023-03-28T03:37:34.054Z,101209.16
2023-03-28T03:40:01.145Z,101203.94
2023-03-28T03:42:28.088Z,101209.16
2023-03-28T03:44:55.009Z,101204.72
2023-03-28T03:47:21.958Z,101203.00
2023-03-28T03:49:48.883Z,101188.91
2023-03-28T03:52:15.801Z,101194.13
2023-03-28T03:54:42.700Z,101186.97
2023-03-28T03:57:09.915Z,101186.97
2023-03-28T03:59:37.460Z,101177.25
2023-03-28T04:02:04.455Z,101174.50
2023-03-28T04:04:31.583Z,101166.66
2023-03-28T04:06:59.438Z,101169.22
2023-03-28T04:09:27.709Z,101163.00
2023-03-28T04:11:55.873Z,101158.56
2023-03-28T04:14:23.046Z,101163.88
2023-03-28T04:16:51.090Z,101158.63
2023-03-28T04:19:18.699Z,101154.19
2023-03-28T04:21:49.129Z,101152.41
2023-03-28T04:24:16.580Z,101155.91
2023-03-28T04:26:46.136Z,101148.84
2023-03-28T04:29:13.804Z,101151.50
2023-03-28T04:31:40.813Z,101152.31
2023-03-28T04:34:08.035Z,101147.88
2023-03-28T04:36:35.047Z,101157.56
2023-03-28T04:39:02.963Z,101151.41
2023-03-28T04:41:32.453Z,101149.63
2023-03-28T04:43:59.582Z,101151.31
2023-03-28T04:46:26.673Z,101136.38
2023-03-28T04:48:56.809Z,101138.00
2023-03-28T04:51:25.372Z,101141.53
2023-03-28T04:53:52.305Z,101140.41
2023-03-28T04:56:19.243Z,101134.81
2023-03-28T04:58:46.304Z,101139.34
2023-03-28T05:01:13.969Z,101140.41
2023-03-28T05:03:41.328Z,101140.41
2023-03-28T05:06:08.616Z,101127.56
2023-03-28T05:08:35.568Z,101130.53
2023-03-28T05:11:02.759Z,101121.88
2023-03-28T05:13:30.252Z,101124.84
2023-03-28T05:15:57.274Z,101124.47
2023-03-28T05:18:24.234Z,101120.63
2023-03-28T05:20:51.427Z,101126.53
2023-03-28T05:23:18.466Z,101113.13
2023-03-28T05:25:53.740Z,101101.50
2023-03-28T05:28:21.641Z,101100.50
2023-03-28T05:30:48.727Z,101096.88
2023-03-28T05:33:16.238Z,101097.72
2023-03-28T05:35:43.533Z,101095.44
2023-03-28T05:38:10.577Z,101105.34
2023-03-28T05:40:38.106Z,101102.53
2023-03-28T05:43:05.280Z,101095.06
2023-03-28T05:45:32.306Z,101098.25
2023-03-28T05:47:59.766Z,101088.50
2023-03-28T05:50:26.804Z,101081.34
2023-03-28T05:52:53.816Z,101080.31
2023-03-28T05:55:20.774Z,101073.91
2023-03-28T05:57:47.750Z,101071.09
2023-03-28T06:00:15.560Z,101068.97
2023-03-28T06:02:43.634Z,101055.53
2023-03-28T06:05:12.897Z,101068.38
2023-03-28T06:07:42.868Z,101059.56
2023-03-28T06:10:12.094Z,101051.78
2023-03-28T06:12:39.121Z,101055.19
2023-03-28T06:15:07.506Z,101052.38
2023-03-28T06:17:35.021Z,101049.47
2023-03-28T06:20:02.221Z,101051.88
2023-03-28T06:22:29.262Z,101047.34
2023-03-28T06:24:56.422Z,101043.13
2023-03-28T06:27:23.440Z,101046.91
2023-03-28T06:29:50.907Z,101035.44
2023-03-28T06:32:19.646Z,101038.97
2023-03-28T06:34:46.775Z,101038.97
2023-03-28T06:37:14.196Z,101027.59
2023-03-28T06:39:42.098Z,101024.75
2023-03-28T06:42:09.019Z,101018.34
2023-03-28T06:44:36.004Z,101016.72
2023-03-28T06:47:03.224Z,101021.00
2023-03-28T06:49:30.151Z,101024.41
2023-03-28T06:51:57.111Z,101013.97
2023-03-28T06:54:24.065Z,101015.69
2023-03-28T06:56:51.033Z,101012.94
2023-03-28T06:59:18.136Z,101019.38
2023-03-28T07:01:45.246Z,101007.19
2023-03-28T07:04:12.621Z,101004.41
2023-03-28T07:06:39.772Z,100997.06
2023-03-28T07:09:07.180Z,100998.34
2023-03-28T07:11:34.473Z,100992.78
2023-03-28T07:14:01.477Z,100992.69
2023-03-28T07:16:28.674Z,100989.03
2023-03-28T07:18:55.898Z,100973.75
2023-03-28T07:21:22.939Z,100973.97
2023-03-28T07:23:50.049Z,100978.06
2023-03-28T07:26:17.455Z,100975.19
2023-03-28T07:28:44.448Z,100969.69
2023-03-28T07:31:12.574Z,100963.34
2023-03-28T07:33:39.999Z,100966.69
2023-03-28T07:36:13.576Z,100963.03
2023-03-28T07:38:41.128Z,100962.84
2023-03-28T07:41:08.565Z,100948.66
2023-03-28T07:43:36.178Z,100953.41
2023-03-28T07:46:06.900Z,100945.41
2023-03-28T07:48:35.980Z,100943.50
2023-03-28T07:51:04.270Z,100947.00
2023-03-28T07:53:31.662Z,100937.91
2023-03-28T07:55:58.910Z,100927.25
2023-03-28T07:58:26.194Z,100927.13
2023-03-28T08:00:53.403Z,100921.66
2023-03-28T08:03:20.614Z,100913.72
2023-03-28T08:05:52.266Z,100914.56
2023-03-28T08:08:22.004Z,100907.47
2023-03-28T08:10:52.352Z,100905.94
2023-03-28T08:13:21.331Z,100910.94
2023-03-28T08:15:54.870Z,100905.97
2023-03-28T08:18:24.817Z,100895.47
2023-03-28T08:21:02.349Z,100897.50
2023-03-28T08:23:29.810Z,100896.59
2023-03-28T08:26:05.259Z,100891.09
2023-03-28T08:28:36.834Z,100891.88
2023-03-28T08:31:14.709Z,100884.78
2023-03-28T08:33:51.927Z,100883.63
2023-03-28T08:36:20.481Z,100877.50
2023-03-28T08:38:50.443Z,100875.59
2023-03-28T08:41:26.770Z,100867.53
2023-03-28T08:44:17.403Z,100866.09
2023-03-28T08:46:46.826Z,100861.00
2023-03-28T08:49:18.734Z,100855.50
2023-03-28T08:51:53.477Z,100851.63
2023-03-28T08:54:28.483Z,100853.19
2023-03-28T08:57:03.066Z,100846.84
2023-03-28T08:59:43.883Z,100843.16
2023-03-28T09:02:19.787Z,100840.69
2023-03-28T09:04:47.880Z,100837.16
2023-03-28T09:07:15.033Z,100837.75
2023-03-28T09:09:49.500Z,100837.47
2023-03-28T09:12:27.567Z,100827.81
2023-03-28T09:15:21.070Z,100822.41
2023-03-28T09:18:05.275Z,100820.97
2023-03-28T09:21:01.414Z,100821.34
2023-03-28T09:23:53.043Z,100819.25
2023-03-28T09:26:22.697Z,100812.84
2023-03-28T09:29:04.980Z,100818.38
2023-03-28T09:31:48.942Z,100812.56
2023-03-28T09:34:28.198Z,100813.59
2023-03-28T09:37:00.464Z,100809.44
2023-03-28T09:39:45.967Z,100810.53
2023-03-28T09:42:37.016Z,100807.22
2023-03-28T09:45:11.560Z,100796.81
2023-03-28T09:47:38.871Z,100797.81
2023-03-28T09:50:12.742Z,100796.22
2023-03-28T09:52:40.842Z,100789.28
2023-03-28T09:55:17.532Z,100779.81
2023-03-28T09:58:01.871Z,100770.25
2023-03-28T10:00:30.098Z,100772.03
2023-03-28T10:02:57.425Z,100771.28
2023-03-28T10:05:41.242Z,100768.63
2023-03-28T10:08:40.627Z,100760.75
2023-03-28T10:11:19.085Z,100759.94
2023-03-28T10:13:51.390Z,100749.34
2023-03-28T10:16:27.849Z,100751.19
2023-03-28T10:18:55.487Z,100745.91
2023-03-28T10:21:26.916Z,100747.78
2023-03-28T10:24:02.253Z,100740.81
2023-03-28T10:26:29.853Z,100739.19
2023-03-28T10:29:03.806Z,100731.44
2023-03-28T10:31:34.331Z,100727.91
2023-03-28T10:34:05.061Z,100725.34
2023-03-28T10:36:41.673Z,100723.72
2023-03-28T10:39:31.558Z,100718.53
2023-03-28T10:42:00.322Z,100716.91
2023-03-28T10:44:32.417Z,100709.91
2023-03-28T10:47:06.076Z,100713.50
2023-03-28T10:50:02.670Z,100702.94
2023-03-28T10:52:39.000Z,100704.78
2023-03-28T10:55:20.780Z,100694.41
2023-03-28T10:58:18.411Z,100696.09
2023-03-28T11:00:51.719Z,100694.41
2023-03-28T11:03:50.913Z,100685.50
2023-03-28T11:06:27.080Z,100682.97
2023-03-28T11:09:10.320Z,100684.81
2023-03-28T11:11:45.014Z,100676.06
2023-03-28T11:14:15.300Z,100671.69
2023-03-28T11:17:26.871Z,100666.41
2023-03-28T11:20:17.904Z,100666.41
2023-03-28T11:23:06.606Z,100660.25
2023-03-28T11:25:36.966Z,100654.97
2023-03-28T11:28:27.209Z,100650.63
2023-03-28T11:30:56.566Z,100641.84
2023-03-28T11:33:23.534Z,100649.78
2023-03-28T11:35:57.445Z,100641.84
2023-03-28T11:38:31.801Z,100643.72
2023-03-28T11:41:01.680Z,100633.97
2023-03-28T11:43:49.187Z,100633.16
2023-03-28T11:46:39.714Z,100622.63
2023-03-28T11:49:09.954Z,100611.19
2023-03-28T11:51:41.794Z,100609.41
2023-03-28T11:54:21.830Z,100611.19
2023-03-28T11:57:12.363Z,100593.72
2023-03-28T11:59:53.355Z,100605.84
2023-03-28T12:02:23.927Z,100598.34
2023-03-28T12:04:57.860Z,100594.22
2023-03-28T12:07:41.444Z,100591.47
2023-03-28T12:10:18.832Z,100581.94
2023-03-28T12:12:51.716Z,100582.88
2023-03-28T12:15:22.847Z,100582.19
2023-03-28T12:17:52.830Z,100581.28
2023-03-28T12:20:44.261Z,100579.44
2023-03-28T12:23:38.273Z,100580.25
2023-03-28T12:26:14.632Z,100570.91
2023-03-28T12:28:44.378Z,100577.81
2023-03-28T12:31:31.543Z,100568.66
2023-03-28T12:34:01.558Z,100564.50
2023-03-28T12:36:49.526Z,100564.84
2023-03-28T12:39:35.028Z,100568.19
2023-03-28T12:42:06.954Z,100553.41
2023-03-28T12:44:54.989Z,100547.94
2023-03-28T12:47:45.196Z,100550.06
2023-03-28T12:50:15.399Z,100546.06
2023-03-28T12:52:44.552Z,100541.53
2023-03-28T12:55:26.889Z,100539.72
2023-03-28T12:57:55.120Z,100539.84
2023-03-28T13:00:28.428Z,100527.53
2023-03-28T13:03:07.328Z,100523.91
2023-03-28T13:05:52.790Z,100516.53
2023-03-28T13:08:39.957Z,100515.81
2023-03-28T13:11:17.157Z,100510.63
2023-03-28T13:13:44.263Z,100508.25
2023-03-28T13:16:15.906Z,100499.84
2023-03-28T13:18:47.789Z,100504.19
2023-03-28T13:21:34.744Z,100492.75
2023-03-28T13:24:02.768Z,100492.75
2023-03-28T13:26:49.815Z,100482.09
2023-03-28T13:29:16.767Z,100482.78
2023-03-28T13:31:44.285Z,100482.56
2023-03-28T13:34:18.925Z,100470.47
2023-03-28T13:36:55.561Z,100473.34
2023-03-28T13:39:24.179Z,100464.34
2023-03-28T13:41:55.976Z,100461.59
2023-03-28T13:44:34.383Z,100460.97
2023-03-28T13:47:02.010Z,100455.28
2023-03-28T13:49:29.376Z,100442.34
2023-03-28T13:51:56.591Z,100451.13
2023-03-28T13:54:24.449Z,100445.91
2023-03-28T13:56:53.036Z,100445.72
2023-03-28T13:59:26.774Z,100435.72
2023-03-28T14:01:55.004Z,100442.91
2023-03-28T14:04:24.383Z,100433.84
2023-03-28T14:06:53.371Z,100425.81
2023-03-28T14:09:29.424Z,100425.63
2023-03-28T14:11:59.307Z,100429.19
2023-03-28T14:14:30.651Z,100428.25
2023-03-28T14:16:57.900Z,100419.28
2023-03-28T14:19:33.488Z,100412.94
2023-03-28T14:22:00.418Z,100417.75
2023-03-28T14:24:27.492Z,100406.97
2023-03-28T14:27:05.786Z,100401.50
2023-03-28T14:29:32.708Z,100390.91
2023-03-28T14:31:59.669Z,100392.13
2023-03-28T14:34:30.771Z,100385.78
2023-03-28T14:37:01.398Z,100382.38
2023-03-28T14:39:30.186Z,100391.84
2023-03-28T14:41:58.648Z,100384.56
2023-03-28T14:44:26.315Z,100374.91
2023-03-28T14:46:57.020Z,100375.16
2023-03-28T14:49:24.977Z,100371.94
2023-03-28T14:51:59.621Z,100369.66
2023-03-28T14:54:35.324Z,100364.78
2023-03-28T14:57:04.426Z,100357.41
2023-03-28T14:59:37.219Z,100361.34
2023-03-28T15:02:05.293Z,100360.09
2023-03-28T15:04:32.623Z,100363.28
2023-03-28T15:06:59.769Z,100356.00
2023-03-28T15:09:33.584Z,100342.44
2023-03-28T15:12:05.790Z,100356.00
2023-03-28T15:14:40.109Z,100341.84
2023-03-28T15:17:07.613Z,100348.53
2023-03-28T15:19:40.456Z,100340.56
2023-03-28T15:22:15.302Z,100345.66
2023-03-28T15:24:42.526Z,100339.06
2023-03-28T15:27:18.373Z,100336.00
2023-03-28T15:29:45.724Z,100344.91
2023-03-28T15:32:16.087Z,100331.44
2023-03-28T15:35:03.630Z,100332.41
2023-03-28T15:37:40.466Z,100328.38
2023-03-28T15:40:29.165Z,100322.53
2023-03-28T15:42:56.965Z,100318.50
2023-03-28T15:45:37.743Z,100312.13
2023-03-28T15:48:05.073Z,100311.06
2023-03-28T15:50:35.028Z,100309.91
2023-03-28T15:53:05.290Z,100308.31
2023-03-28T15:55:33.286Z,100303.75
2023-03-28T15:58:00.387Z,100302.50
2023-03-28T16:00:42.513Z,100295.16
2023-03-28T16:03:26.362Z,100291.97
2023-03-28T16:06:09.674Z,100287.63
2023-03-28T16:08:39.458Z,100286.22
2023-03-28T16:11:08.205Z,100284.34
2023-03-28T16:13:35.209Z,100281.34
2023-03-28T16:16:04.428Z,100280.28
2023-03-28T16:18:31.582Z,100275.50
2023-03-28T16:20:58.531Z,100277.00
2023-03-28T16:23:26.103Z,100271.13
2023-03-28T16:25:53.115Z,100277.28
2023-03-28T16:28:20.506Z,100274.38
2023-03-28T16:30:47.626Z,100276.09
2023-03-28T16:33:14.542Z,100274.81
2023-03-28T16:35:41.631Z,100264.91
2023-03-28T16:38:10.629Z,100260.00
2023-03-28T16:40:37.828Z,100265.09
2023-03-28T16:43:04.772Z,100268.03
2023-03-28T16:45:31.920Z,100265.38
2023-03-28T16:47:58.937Z,100262.47
2023-03-28T16:50:25.872Z,100265.03
2023-03-28T16:52:53.042Z,100262.25
2023-03-28T16:55:19.885Z,100266.41
2023-03-28T16:57:47.014Z,100262.75
2023-03-28T17:00:18.406Z,100262.75
2023-03-28T17:02:47.562Z,100257.34
2023-03-28T17:05:15.404Z,100254.13
2023-03-28T17:07:42.327Z,100253.16
2023-03-28T17:10:09.642Z,100253.91
2023-03-28T17:12:36.627Z,100257.41
2023-03-28T17:15:03.686Z,100253.28
2023-03-28T17:17:31.059Z,100255.81
2023-03-28T17:19:58.188Z,100250.75
2023-03-28T17:22:25.938Z,100242.50
2023-03-28T17:24:55.936Z,100246.50
2023-03-28T17:27:23.773Z,100245.44
2023-03-28T17:29:51.765Z,100237.31
2023-03-28T17:32:19.284Z,100239.47
2023-03-28T17:34:46.864Z,100240.34
2023-03-28T17:37:14.207Z,100232.66
2023-03-28T17:39:41.389Z,100232.41
2023-03-28T17:42:09.593Z,100235.31
2023-03-28T17:44:36.610Z,100233.28
2023-03-28T17:47:04.714Z,100235.81
2023-03-28T17:49:31.726Z,100240.19
2023-03-28T17:51:58.781Z,100237.28
2023-03-28T17:54:26.652Z,100240.78
2023-03-28T17:56:54.361Z,100238.97
2023-03-28T17:59:25.694Z,100242.63
2023-03-28T18:01:53.200Z,100241.69
2023-03-28T18:04:20.317Z,100252.94
2023-03-28T18:06:47.276Z,100251.63
2023-03-28T18:09:14.375Z,100247.06
2023-03-28T18:11:41.980Z,100243.91
2023-03-28T18:14:09.010Z,100244.19
2023-03-28T18:16:36.637Z,100238.28
2023-03-28T18:19:03.888Z,100245.16
2023-03-28T18:21:30.981Z,100238.53
2023-03-28T18:23:57.895Z,100241.91
2023-03-28T18:26:25.221Z,100251.06
2023-03-28T18:28:52.551Z,100248.91
2023-03-28T18:31:24.716Z,100247.47
2023-03-28T18:33:53.851Z,100246.38
2023-03-28T18:36:21.181Z,100247.81
2023-03-28T18:38:48.330Z,100245.66
2023-03-28T18:41:15.739Z,100252.44
2023-03-28T18:43:43.220Z,100249.66
2023-03-28T18:46:15.662Z,100250.88
2023-03-28T18:48:43.554Z,100249.31
2023-03-28T18:51:10.782Z,100247.63
2023-03-28T18:53:40.945Z,100249.31
2023-03-28T18:56:08.613Z,100255.16
2023-03-28T18:58:37.567Z,100253.56
2023-03-28T19:01:05.346Z,100252.72
2023-03-28T19:03:35.145Z,100261.78
2023-03-28T19:06:02.930Z,100248.84
2023-03-28T19:08:31.523Z,100262.63
2023-03-28T19:11:00.548Z,100254.88
2023-03-28T19:13:29.977Z,100255.81
2023-03-28T19:16:01.990Z,100258.47
2023-03-28T19:18:29.370Z,100262.13
2023-03-28T19:20:56.804Z,100257.66
2023-03-28T19:23:24.117Z,100258.38
2023-03-28T19:25:51.362Z,100257.53
2023-03-28T19:28:18.829Z,100248.59
2023-03-28T19:30:46.274Z,100245.91
2023-03-28T19:33:13.408Z,100239.84
2023-03-28T19:35:41.142Z,100250.38
2023-03-28T19:38:08.676Z,100248.59
2023-03-28T19:40:36.259Z,100250.50
2023-03-28T19:43:06.231Z,100249.91
2023-03-28T19:45:36.761Z,100242.66
2023-03-28T19:48:03.887Z,100251.59
2023-03-28T19:50:33.990Z,100246.63
2023-03-28T19:53:01.458Z,100237.31
2023-03-28T19:55:28.693Z,100250.50
2023-03-28T19:57:57.932Z,100249.44
2023-03-28T20:00:24.918Z,100250.88
2023-03-28T20:02:52.103Z,100256.34
2023-03-28T20:05:19.768Z,100255.59
2023-03-28T20:07:47.147Z,100257.19
2023-03-28T20:10:14.213Z,100259.09
2023-03-28T20:12:41.624Z,100254.88
2023-03-28T20:15:10.780Z,100250.63
2023-03-28T20:17:39.388Z,100250.06
2023-03-28T20:20:07.593Z,100237.47
2023-03-28T20:22:36.157Z,100224.88
2023-03-28T20:25:03.227Z,100240.72
2023-03-28T20:27:32.440Z,100245.06
2023-03-28T20:29:59.712Z,100238.91
2023-03-28T20:32:27.571Z,100249.31
2023-03-28T20:34:54.896Z,100244.59
2023-03-28T20:37:24.045Z,100238.19
2023-03-28T20:39:52.544Z,100252.44
2023-03-28T20:42:20.935Z,100244.47
2023-03-28T20:44:48.288Z,100249.53
2023-03-28T20:47:23.088Z,100242.41
2023-03-28T20:49:55.446Z,100239.97
2023-03-28T20:52:22.827Z,100235.28
2023-03-28T20:54:50.676Z,100236.84
2023-03-28T20:57:18.413Z,100243.00
2023-03-28T20:59:46.014Z,100246.38
2023-03-28T21:02:13.616Z,100240.22
2023-03-28T21:04:40.943Z,100242.75
2023-03-28T21:07:08.398Z,100248.06
2023-03-28T21:09:35.409Z,100244.59
2023-03-28T21:12:02.844Z,100249.06
2023-03-28T21:14:32.064Z,100249.78
2023-03-28T21:17:00.677Z,100242.03
2023-03-28T21:19:28.137Z,100239.34
2023-03-28T21:21:56.941Z,100240.34
2023-03-28T21:24:24.062Z,100235.75
2023-03-28T21:26:51.071Z,100231.28
2023-03-28T21:29:18.109Z,100238.88
2023-03-28T21:31:45.153Z,100235.97
2023-03-28T21:34:12.482Z,100237.69
2023-03-28T21:36:39.622Z,100237.22
2023-03-28T21:39:06.514Z,100231.16
2023-03-28T21:41:37.392Z,100232.38
2023-03-28T21:44:04.319Z,100239.66
2023-03-28T21:46:31.652Z,100241.56
2023-03-28T21:48:58.564Z,100239.03
2023-03-28T21:51:26.307Z,100235.66
2023-03-28T21:53:53.363Z,100228.63
2023-03-28T21:56:20.201Z,100230.56
2023-03-28T21:58:47.629Z,100233.34
2023-03-28T22:01:15.298Z,100234.19
2023-03-28T22:03:42.706Z,100241.22
2023-03-28T22:06:10.012Z,100242.56
2023-03-28T22:08:37.272Z,100252.91
2023-03-28T22:11:11.383Z,100253.66
2023-03-28T22:13:39.221Z,100251.22
2023-03-28T22:16:06.780Z,100251.94
2023-03-28T22:18:34.354Z,100247.59
2023-03-28T22:21:03.005Z,100243.81
2023-03-28T22:23:30.262Z,100245.16
2023-03-28T22:25:58.866Z,100246.59
2023-03-28T22:28:25.888Z,100239.28
2023-03-28T22:30:57.132Z,100241.50
2023-03-28T22:33:25.768Z,100241.56
2023-03-28T22:35:53.451Z,100243.72
2023-03-28T22:38:20.516Z,100244.44
2023-03-28T22:40:47.885Z,100248.47
2023-03-28T22:43:15.519Z,100242.16
2023-03-28T22:45:43.280Z,100253.22
2023-03-28T22:48:16.210Z,100246.44
2023-03-28T22:50:46.620Z,100239.06
2023-03-28T22:53:15.042Z,100239.28
2023-03-28T22:55:45.247Z,100240.56
2023-03-28T22:58:12.231Z,100237.41
2023-03-28T23:00:39.394Z,100230.81
2023-03-28T23:03:08.444Z,100232.94
2023-03-28T23:05:35.812Z,100237.53
2023-03-28T23:08:02.878Z,100232.56
2023-03-28T23:10:29.882Z,100234.44
2023-03-28T23:12:56.829Z,100230.22
2023-03-28T23:15:23.757Z,100230.47
2023-03-28T23:17:51.254Z,100230.13
2023-03-28T23:20:19.552Z,100225.88
2023-03-28T23:22:47.647Z,100227.91
2023-03-28T23:25:15.899Z,100227.25
2023-03-28T23:27:43.620Z,100233.75
2023-03-28T23:30:12.684Z,100219.84
2023-03-28T23:32:39.803Z,100234.06
2023-03-28T23:35:07.116Z,100237.88
2023-03-28T23:37:34.759Z,100230.06
2023-03-28T23:40:01.598Z,100232.78
2023-03-28T23:42:28.407Z,100236.50
2023-03-28T23:44:55.201Z,100234.94
2023-03-28T23:47:22.239Z,100226.25
2023-03-28T23:49:49.036Z,100224.66
2023-03-28T23:52:16.546Z,100238.97
2023-03-28T23:54:43.637Z,100238.19
2023-03-28T23:57:10.637Z,100231.31
2023-03-28T23:59:37.594Z,100227.19
